Results by/Résultats par Info:[email protected] Phone: (613)260-0994


                                    K-TOWN TRIATHLON

                                Sunday August 1st, 2004

                         Confederation Park, Kingston, Ontario

                        Overall Results - Long Course Triathlon

  -----FINAL----- ----------------------- ------------ ------------------- -----          2 km                       56.5 km                   15 km
                                                       Category                   ------SWIM + T1-------    ----------BIKE--------    -------RUN + T2--------
    Pos     Time  Name                    City         Plc/Total Category     #    Cat  Ovr  Time  /100m     Cat Ovr Time  km/hr      Cat  Ovr  Time     km
  ------  ------- ----------------------- ------------ ------------------- -----  ----------------------    ----------------------    -----------------------
    1     2:49:43 Nigel Gray              Toronto      1/2   Elite Men     173    2      6   28:14  1:25    1      1 1:26:04  39.4     1      1   55:26  3:42 
    2     2:56:07 Rick Hellard            Ottawa       2/2   Elite Men     158    1      2   26:56  1:21    2      2 1:27:19  38.8     2     10 1:01:53  4:08 
    3     2:58:28 Michael Hayes           Calgary      1/24  M35 - 39      113    2     10   29:05  1:28    1      4 1:29:01  38.1     3      6 1:00:23  4:02 
    4     2:59:39 Rick Collard            Ottawa       1/21  M40 - 44      187    1      3   27:07  1:22    1      3 1:28:09  38.5     6     20 1:04:23  4:18 
    5     3:02:08 Allan Faulds            Frankford    2/24  M35 - 39      163    5     22   32:19  1:37    3     10 1:31:46  36.9     1      3   58:05  3:53 
    6     3:02:18 Tony OKEEFFE            Kingston     2/21  M40 - 44        4    5     13   31:20  1:34    4      9 1:31:33  37.0     1      4   59:25  3:58 
    7     3:03:53 Ian Wilson              Peterborou   3/21  M40 - 44      197    4     12   31:17  1:34    3      8 1:31:03  37.2     3      8 1:01:34  4:07 
    8     3:06:31 Chris Milburn           Sydney       3/24  M35 - 39      103    9     31   34:04  1:43    2      6 1:29:52  37.7     6     13 1:02:35  4:11 
    9     3:07:46 James Young             Ottawa       4/21  M40 - 44      166    3      9   28:55  1:27    7     20 1:34:49  35.8     5     19 1:04:03  4:17 
   10     3:08:36 Michael Adamcryck       Kingston     4/24  M35 - 39       39    4     17   31:46  1:36    11    37 1:36:47  35.0     2      5 1:00:04  4:01 
   11     3:08:55 Julie Curwin            Sydney       1/4   Elite Women   107    2      8   28:49  1:27    3     27 1:35:31  35.5     2     21 1:04:37  4:19 
   12     3:09:24 Jamie Nickerson         Guelph       5/24  M35 - 39      155    3     16   31:44  1:36    5     19 1:34:34  35.9     7     14 1:03:06  4:13 
   13     3:09:38 Marty RAYMOND           Cumberland   5/21  M40 - 44        5    2      4   27:15  1:22    8     35 1:36:29  35.1     7     24 1:05:54  4:24 
   14     3:09:46 Sheila Kealey           Ottawa       2/4   Elite Women    93    3     11   31:11  1:34    2     26 1:35:22  35.6     1     15 1:03:14  4:13 
   15     3:10:10 Clive MORGAN            Yarker       1/17  M45 - 49       21    1      5   27:52  1:24    5     31 1:35:57  35.3     2     25 1:06:21  4:26 
   16     3:10:22 Marie Danais            Hull         3/4   Elite Women   199    1      1   26:54  1:21    1     23 1:35:00  35.7     4     36 1:08:29  4:34 
   17     3:10:35 Jean-Pierre Thibault    Ottawa       1/17  M25 - 29      160    7     62   36:51  1:51    1      5 1:29:49  37.8     1     18 1:03:56  4:16 
   18     3:11:38 Doug Shaw               Ottawa       6/24  M35 - 39      150    11    48   35:05  1:46    7     22 1:34:56  35.7     4      9 1:01:38  4:07 
   19     3:12:59 Eric Clark              Ottawa       1/19  M30 - 34       47    1     23   32:27  1:38    4     49 1:38:37  34.4     1     11 1:01:56  4:08 
   20     3:13:49 Paul B. McAneney        Ottawa       2/19  M30 - 34      147    7     56   36:05  1:49    2     15 1:32:47  36.5     3     23 1:04:58  4:20 
   21     3:14:10 David Markin            Ottawa       2/17  M25 - 29       61    1     15   31:42  1:36    3     18 1:34:21  35.9     2     30 1:08:07  4:33 
   22     3:14:20 Chris Macknie           Ottawa       6/21  M40 - 44       18    17   110   40:44  2:03    5     12 1:32:21  36.7     2      7 1:01:16  4:06 
   23     3:14:33 Pat McNeely             Bishopsmil   3/19  M30 - 34       80    5     45   34:59  1:45    1     13 1:32:31  36.6     4     27 1:07:04  4:29 
   24     3:14:50 Peter Hamilton          Ottawa       7/21  M40 - 44      131    12    78   37:52  1:54    2      7 1:30:06  37.6     8     26 1:06:52  4:28 
   25     3:14:59 Alex Muszka             London       8/21  M40 - 44       87    10    68   37:10  1:52    6     17 1:34:17  36.0     4     17 1:03:34  4:15 
   26     3:16:01 Colin MacDougall        Glenburnie   7/24  M35 - 39      198    7     25   33:28  1:41    8     25 1:35:15  35.6     8     28 1:07:20  4:30 
   27     3:17:22 Jean Blain              Ottawa       2/17  M45 - 49       23    8     71   37:20  1:52    1     14 1:32:37  36.6     3     29 1:07:26  4:30 
   28     3:17:53 Doug Sutherland         Peterborou   9/21  M40 - 44      121    6     14   31:32  1:35    9     40 1:36:56  35.0     11    40 1:09:25  4:38 
   29     3:18:14 David Brown             Kanata       8/24  M35 - 39      132    8     30   34:02  1:43    10    34 1:36:05  35.3     9     31 1:08:08  4:33 
   30     3:19:49 Vincent CLIFFORD        Ottawa      10/21  M40 - 44      179    7     27   33:44  1:42    10    43 1:37:42  34.7     9     35 1:08:24  4:34 
   31     3:20:05 Steve Hinton            Kingston     3/17  M45 - 49       20    3     34   34:20  1:43    4     30 1:35:57  35.3     4     42 1:09:49  4:40 
   32     3:20:43 Ian Button              Nepean       3/17  M25 - 29       55    2     20   31:59  1:36    2     16 1:33:09  36.4     6     75 1:15:36  5:03 
   33     3:20:47 Laura Fluit             Kingston     4/4   Elite Women   109    4     19   31:56  1:36    4     64 1:40:41  33.7     3     33 1:08:11  4:33 
   34     3:20:57 Paul Monroe             Wolfe Isla   4/17  M45 - 49      145    4     37   34:25  1:44    8     78 1:43:09  32.9     1     16 1:03:23  4:14 
   35     3:21:18 Glenn McLay             Milton       9/24  M35 - 39      162    18    99   39:40  1:59    15    53 1:39:08  34.2     5     12 1:02:31  4:11 
   36     3:22:43 Dean Usher              Manotick     4/19  M30 - 34      125    13    92   38:57  1:57    5     52 1:39:08  34.2     2     22 1:04:39  4:19 
   37     3:22:53 Jules Moreau            Kingston    11/21  M40 - 44       92    8     52   35:40  1:47    11    44 1:37:52  34.6     10    39 1:09:22  4:38 
   38     3:23:19 Dave Newland            Ottawa       5/17  M45 - 49      186    6     55   36:03  1:49    6     36 1:36:34  35.1     6     47 1:10:43  4:43 
   39     3:23:45 Mike Giles              Ottawa       6/17  M45 - 49       96    9     72   37:23  1:53    3     29 1:35:31  35.5     7     49 1:10:51  4:44 
   40     3:24:59 Jeff Morris             Toronto      7/17  M45 - 49      172    7     67   37:09  1:52    2     24 1:35:05  35.7     8     61 1:12:46  4:52 
   41     3:25:00 Richard Daley           Peterborou  10/24  M35 - 39       97    6     24   33:14  1:40    14    47 1:38:15  34.5     15    64 1:13:32  4:55 
   42     3:25:52 Tim Doherty             Stratford   11/24  M35 - 39       74    1      7   28:21  1:26    17    86 1:43:41  32.7     16    67 1:13:50  4:56 
   43     3:26:06 Christopher Grimwood    Rockwood     4/17  M25 - 29       19    3     28   33:49  1:42    8     74 1:42:24  33.1     4     43 1:09:54  4:40 
   44     3:26:30 Joel Kyer               Kingston     1/6   M20 - 24       70    1     35   34:22  1:44    3     55 1:39:35  34.0     3     60 1:12:33  4:51 
   45     3:26:56 Beverley Wells          Ottawa       1/16  W35 - 39       56    3     82   38:19  1:55    1     62 1:40:28  33.7     1     32 1:08:10  4:33 
   46     3:27:09 Veronic Bezaire         Guelph       1/9   W25 - 29      140    1     21   32:17  1:37    2     89 1:44:08  32.6     1     48 1:10:45  4:43 
   47     3:27:20 Bill Dee                Toronto      5/19  M30 - 34      117    4     41   34:45  1:45    7     65 1:41:10  33.5     5     52 1:11:25  4:46 
   48     3:27:25 Claire Grasty           Gloucester   1/13  W30 - 34      138    4     54   35:48  1:48    2     60 1:40:12  33.8     1     53 1:11:26  4:46 
   49     3:28:15 Liz Kennedy             Kirkland     1/8   W40 - 44      167    4    116   40:57  2:03    1     42 1:37:41  34.7     1     41 1:09:38  4:39 
   50     3:28:52 Douglas Bruce           Mississaug  12/24  M35 - 39       84    12    58   36:34  1:50    6     21 1:34:54  35.7     18    82 1:17:25  5:10 
   51     3:29:02 Alan Chud               Markham     12/21  M40 - 44        8    11    77   37:45  1:54    16    66 1:41:15  33.5     12    44 1:10:03  4:41 
   52     3:29:03 Alain Dube              Ottawa       5/17  M25 - 29       30    5     42   34:47  1:45    6     48 1:38:16  34.5     7     79 1:16:01  5:05 
   53     3:29:05 Edward Livingstone      Ottawa      13/24  M35 - 39      194    15    81   38:18  1:55    16    70 1:41:49  33.3     10    38 1:08:59  4:36 
   54     3:29:21 Erin Down               Ottawa       2/13  W30 - 34       65    2     40   34:38  1:44    1     56 1:39:45  34.0     3     73 1:14:59  5:00 
   55     3:29:33 Gordon Tim              Kingston     6/17  M25 - 29      181    6     51   35:32  1:47    9     75 1:42:48  33.0     5     50 1:11:14  4:45 
   56     3:30:21 James COULTER           Toronto     14/24  M35 - 39        6    16    84   38:25  1:56    9     33 1:36:04  35.3     17    77 1:15:53  5:04 
   57     3:30:28 David Stevenson         Street       6/19  M30 - 34      149    9     60   36:44  1:51    8     67 1:41:24  33.4     6     58 1:12:21  4:50 
   58     3:30:34 Kevin Penny             Ottawa       8/17  M45 - 49       45    2     18   31:54  1:36    10    84 1:43:28  32.8     9     74 1:15:13  5:01 
   59     3:30:40 Heather Johnston        St. Sauveu   2/8   W40 - 44      114    1     46   34:59  1:45    2     68 1:41:30  33.4     3     70 1:14:12  4:57 
   60     3:30:46 Scott Ewart             Seeleys ba   2/6   M20 - 24      165    2     95   39:17  1:58    2     54 1:39:25  34.1     2     55 1:12:05  4:49 
   61     3:30:56 Matthew Carew           Ottawa       7/17  M25 - 29      182    4     36   34:23  1:44    4     28 1:35:31  35.5     11   102 1:21:03  5:25 
   62     3:31:11 Rene Dionne             Ottawa      13/21  M40 - 44      161    16   102   39:55  2:00    12    51 1:38:46  34.3     14    59 1:12:32  4:51 
   63     3:31:30 Ian Joiner              Gatineau     7/19  M30 - 34       36    3     39   34:36  1:44    10    79 1:43:13  32.8     7     66 1:13:42  4:55 
   64     3:31:37 Scott Gavura            Toronto      8/19  M30 - 34      128    8     57   36:06  1:49    6     57 1:39:48  34.0     8     76 1:15:45  5:03 
   65     3:31:39 Joanna Jackson          North York   2/9   W25 - 29       32    3     32   34:10  1:43    1     81 1:43:19  32.8     2     69 1:14:11  4:57 
   66     3:32:36 Juergen Dingel          Kingston    15/24  M35 - 39      119    21   132   43:36  2:11    13    39 1:36:50  35.0     13    57 1:12:11  4:49 
   67     3:34:06 Monique Giroux          Gloucester   2/16  W35 - 39       62    1     29   33:56  1:42    2     69 1:41:32  33.4     4     87 1:18:39  5:15 
   68     3:34:25 Kerry Rocheleau         Ottawa       3/13  W30 - 34      146    3     44   34:57  1:45    3    104 1:46:36  31.8     2     62 1:12:52  4:52 
   69     3:34:41 Michael Dybala          Ottawa       8/17  M25 - 29      189    10    76   37:37  1:53    5     41 1:37:08  34.9     9     94 1:19:57  5:20 
   70     3:34:43 Bob Ebsary              Rockland    14/21  M40 - 44       94    14    86   38:39  1:56    17    92 1:44:22  32.5     13    54 1:11:43  4:47 
   71     3:34:46 Cory PLant              Perth       15/21  M40 - 44      180    15    98   39:39  1:59    14    61 1:40:19  33.8     15    72 1:14:48  5:00 
   72     3:36:15 Michael Scherman        Ottawa       3/6   M20 - 24       95    5    118   41:13  2:04    4    106 1:46:51  31.7     1     34 1:08:11  4:33 
   73     3:36:29 Todd Stacey             Oshawa      16/24  M35 - 39       57    17    87   38:44  1:57    19    95 1:44:46  32.4     14    63 1:13:01  4:53 
   74     3:36:50 Cathy Bodnoff           Ottawa       3/8   W40 - 44       66    2     75   37:35  1:53    6    114 1:47:59  31.4     2     51 1:11:18  4:46 
   75     3:38:48 Dalton Cote             Upavon Wil  17/24  M35 - 39       58    13    65   37:02  1:52    4     11 1:32:18  36.7     23   135 1:29:29  5:58 
   76     3:38:52 Eric HAANPAA            Ottawa       9/19  M30 - 34       73    14   105   40:21  2:02    3     46 1:38:03  34.6     9     96 1:20:29  5:22 
   77     3:39:30 Murray Legge            Richmond H   1/10  M50 - 54       22    3    109   40:36  2:02    1     45 1:37:54  34.6     3     99 1:21:00  5:24 
   78     3:39:30 Steve Wyrozub           Oshawa       9/17  M25 - 29      183    11    91   38:55  1:57    10    77 1:43:05  32.9     8     83 1:17:30  5:10 
   79     3:39:52 Ed Brand                Kingston     1/4   M55 - 59       85    2    103   40:13  2:01    1    101 1:46:06  32.0     1     65 1:13:34  4:55 
   80     3:40:37 Julia Fournier          Orleans      3/16  W35 - 39       88    2     50   35:13  1:46    3     85 1:43:38  32.7     6    108 1:21:47  5:28 
   81     3:40:41 Dennis Driscoll         Peterborou   2/10  M50 - 54      178    2     85   38:31  1:56    3     80 1:43:18  32.8     2     88 1:18:52  5:16 
   82     3:40:57 Dean Hoisak             Navan       18/24  M35 - 39      192    10    43   34:52  1:45    12    38 1:36:48  35.0     22   134 1:29:19  5:58 
   83     3:41:04 Stephanie Smith         Perth        4/13  W30 - 34      137    1     33   34:12  1:43    6    124 1:50:28  30.7     4     80 1:16:25  5:06 
   84     3:41:44 Michael LeSage          Nobleton     9/17  M45 - 49       34    14   151   46:33  2:20    12    96 1:44:47  32.4     5     45 1:10:25  4:42 
   85     3:41:45 Kevin Pilling           Brockville  10/17  M25 - 29       76    13   120   41:38  2:05    7     58 1:40:00  33.9     10    95 1:20:09  5:21 
   86     3:43:10 Donna Lott              Carrying P   4/8   W40 - 44      177    5    117   40:58  2:03    4     76 1:43:04  32.9     5     90 1:19:09  5:17 
   87     3:43:14 Edward Fingland         Kingston    11/17  M25 - 29      143    9     64   36:56  1:51    11    94 1:44:39  32.4     12   106 1:21:39  5:27 
   88     3:43:19 Catherine Campbell      Ottawa       1/3   W20 - 24      151    3    126   42:37  2:08    1    105 1:46:44  31.8     1     68 1:13:59  4:56 
   89     3:44:05 Shaun Seaman            Kanata       3/10  M50 - 54      156    4    122   42:01  2:06    8    169 2:05:17  27.1     1      2   56:48  3:48 
   90     3:44:08 Zoe Panchen             Ottawa       5/8   W40 - 44       40    6    131   43:03  2:10    3     72 1:42:05  33.2     4     89 1:19:01  5:17 
   91     3:44:24 Chantal Mercier         Ottawa       5/13  W30 - 34       41    5     88   38:49  1:57    4    107 1:47:19  31.6     5     86 1:18:17  5:14 
   92     3:44:33 Barry Campbell          RR#1 Veron  10/17  M45 - 49       67    11   104   40:15  2:01    7     50 1:38:44  34.3     11   121 1:25:34  5:43 
   93     3:44:39 Jamie Young             Kingston    12/17  M25 - 29       75    17   168   49:22  2:29    12   102 1:46:33  31.8     3     37 1:08:45  4:35 
   94     3:45:20 Christian Bourget       Gatineau    10/19  M30 - 34      190    2     38   34:28  1:44    9     73 1:42:11  33.2     13   132 1:28:42  5:55 
   95     3:45:56 Sarah Whyte             Toronto      3/9   W25 - 29       44    2     26   33:31  1:41    4    116 1:48:59  31.1     6    113 1:23:26  5:34 
   96     3:46:13 Sham Srigobind          Thornhill   19/24  M35 - 39       33    14    66   37:05  1:52    21   110 1:47:25  31.6     20   107 1:21:44  5:27 
   97     3:46:17 Sheri McCready          Ottawa       4/16  W35 - 39      108    11   139   44:45  2:15    4     93 1:44:35  32.4     2     81 1:16:58  5:08 
   98     3:46:44 Sean McNulty            Mississaug  11/19  M30 - 34      111    12    79   38:00  1:54    14   112 1:47:43  31.5     11   101 1:21:02  5:25 
   99     3:47:14 Craig CAMPBELL          Odessa      20/24  M35 - 39        3    20   121   41:46  2:06    18    88 1:43:59  32.6     19   104 1:21:31  5:27 
  100     3:47:30 Sebastien Bigras        Quebec       4/6   M20 - 24      159    6    157   47:08  2:22    1     32 1:36:03  35.3     4    117 1:24:20  5:38 
  101     3:47:35 Cheryl Altrows          Kingston     6/8   W40 - 44      110    3    115   40:56  2:03    5     87 1:43:54  32.6     6    111 1:22:47  5:32 
  102     3:47:40 Don Cowin               RR3 Bath    11/17  M45 - 49       11    5     47   35:01  1:46    13    97 1:44:53  32.3     13   125 1:27:46  5:52 
  103     3:48:26 Maurice Gallagher       Toronto     16/21  M40 - 44       37    18   148   46:16  2:19    15    63 1:40:38  33.7     17   105 1:21:33  5:27 
  104     3:48:44 Gale QUIGLEY            Kingston     5/16  W35 - 39        1    9    137   44:28  2:14    6    103 1:46:33  31.8     3     84 1:17:43  5:11 
  105     3:50:02 Joanne Lancaster        Ottawa       6/16  W35 - 39      124    8    133   43:41  2:12    5     98 1:45:21  32.2     5    100 1:21:01  5:25 
  106     3:51:00 Hendrik Saaltink        Cornwall     4/10  M50 - 54       78    1     61   36:50  1:51    2     71 1:42:05  33.2     6    146 1:32:07  6:09 
  107     3:51:17 Steve McCready          Orleans     21/24  M35 - 39      170    24   169   49:25  2:29    22   125 1:51:14  30.5     11    46 1:10:39  4:43 
  108     3:51:34 Dennis Hills            Trenton     22/24  M35 - 39       49    23   150   46:31  2:20    24   131 1:52:53  30.0     12    56 1:12:11  4:49 
  109     3:51:51 Jim Elyot               Kingston    12/17  M45 - 49      169    15   164   48:10  2:25    11    91 1:44:20  32.5     10    92 1:19:22  5:18 
  110     3:52:17 Linda Martin            Kanata       7/16  W35 - 39      133    4     89   38:49  1:57    7    113 1:47:50  31.4     11   122 1:25:39  5:43 
  111     3:52:28 Kendle McCloskey        Grimsby      4/9   W25 - 29      130    8    165   48:30  2:26    5    117 1:49:13  31.0     3     71 1:14:46  5:00 
  112     3:52:44 Chad Clark              Greely      12/19  M30 - 34       35    6     49   35:05  1:46    13   108 1:47:19  31.6     14   139 1:30:21  6:02 
  113     3:53:59 Catriona Jackson        Toronto      2/3   W20 - 24       83    1     74   37:27  1:53    3    142 1:55:54  29.3     2     98 1:20:39  5:23 
  114     3:54:42 Villy Kalipolidis       Stitsville  23/24  M35 - 39       26    19   112   40:48  2:03    23   127 1:51:38  30.4     21   109 1:22:17  5:30 
  115     3:54:47 Heather Dart            Lindsay      5/9   W25 - 29       28    5     90   38:51  1:57    3    115 1:48:04  31.4     7    127 1:27:52  5:52 
  116     3:55:11 Caroline Stone          Ottawa       6/9   W25 - 29       29    4     59   36:38  1:50    6    122 1:50:12  30.8     8    130 1:28:22  5:54 
  117     3:55:26 Mark Robertson          Burlington  13/19  M30 - 34      118    16   127   42:39  2:08    16   128 1:52:14  30.2     10    97 1:20:33  5:23 
  118     3:56:00 Monika Dutt             Baltimore    7/9   W25 - 29       46    6    128   42:41  2:09    7    129 1:52:15  30.2     5    103 1:21:05  5:25 
  119     3:56:24 Yves Decoste            Lyn         14/19  M30 - 34      126    11    73   37:25  1:53    11    90 1:44:17  32.5     17   151 1:34:42  6:19 
  120     3:56:45 Craig Crute             Scarboroug  13/17  M45 - 49      106    12   125   42:35  2:08    9     82 1:43:19  32.8     14   142 1:30:51  6:04 
  121     3:57:04 Suzanne Dostaler        Kingston     1/3   W45 - 49       51    2    163   48:01  2:25    1    121 1:49:52  30.9     1     91 1:19:11  5:17 
  122     3:57:47 Garth Emerson           Nepean      14/17  M45 - 49      196    10    94   39:09  1:58    14   109 1:47:24  31.6     15   144 1:31:16  6:06 
  123     3:58:26 Johanne Lefebvre        St-Sauveur   2/3   W45 - 49      115    1    113   40:52  2:03    2    136 1:54:09  29.7     2    114 1:23:26  5:34 
  124     3:58:30 Tim McLean              Aurora      15/19  M30 - 34      154    10    70   37:15  1:52    15   123 1:50:27  30.7     15   141 1:30:49  6:04 
  125     3:58:43 Lisa Saunders           Perth        6/13  W30 - 34      193    8    114   40:54  2:03    10   154 1:58:28  28.6     6     93 1:19:23  5:18 
  126     3:59:02 Lance Martel            Toronto     16/19  M30 - 34      176    15   111   40:46  2:03    12    99 1:45:51  32.0     16   147 1:32:26  6:10 
  127     3:59:38 Jill Relyea-Voss        Kingston     1/1   W50 - 54       25    1    107   40:30  2:02    1    118 1:49:28  31.0     1    137 1:29:40  5:59 
  128     3:59:43 Dwight McDougall        Kanata       5/10  M50 - 54      164    5    144   45:35  2:17    4     83 1:43:27  32.8     5    140 1:30:43  6:03 
  129     4:00:14 Tamara Baldwin          Brockville   7/13  W30 - 34      139    6     93   39:00  1:57    5    111 1:47:41  31.5     10   150 1:33:33  6:15 
  130     4:00:37 Morris O'Callaghan      Ottawa       2/4   M55 - 59      102    1     69   37:12  1:52    3    135 1:53:44  29.8     3    138 1:29:42  5:59 
  131     4:01:06 Debbie Daley            Peterborou   8/16  W35 - 39       98    6    123   42:26  2:08    8    133 1:53:33  29.9     10   120 1:25:08  5:41 
  132     4:01:33 Katrina Cripps          Richmond H   8/9   W25 - 29       60    7    135   44:08  2:13    8    161 2:01:31  27.9     4     78 1:15:55  5:04 
  133     4:02:04 Allison Padova          Ottawa       8/13  W30 - 34       77    10   136   44:13  2:13    7    134 1:53:36  29.8     7    116 1:24:17  5:38 
  134     4:02:51 Jeremy Baird            Kingston     5/6   M20 - 24       86    4    108   40:33  2:02    6    148 1:57:47  28.8     5    118 1:24:33  5:39 
  135     4:03:04 Steve Wilkie            Richmond H   6/10  M50 - 54      188    6    146   45:46  2:18    5    120 1:49:51  30.9     4    124 1:27:28  5:50 
  136     4:03:21 Cathy Campanaro         Kingston     9/16  W35 - 39       68    10   138   44:38  2:14    11   145 1:56:20  29.1     7    110 1:22:24  5:30 
  137     4:03:59 Stefan Baral            Kingston    13/17  M25 - 29      129    15   130   42:58  2:09    13   126 1:51:23  30.4     14   136 1:29:38  5:59 
  138     4:04:59 David Denison           Belleville  24/24  M35 - 39       16    22   145   45:44  2:18    20   100 1:46:02  32.0     24   148 1:33:14  6:13 
  139     4:05:37 Jeff Musson             Trenton     17/21  M40 - 44       38    13    83   38:23  1:56    13    59 1:40:08  33.9     19   169 1:47:06  7:09 
  140     4:06:37 Andre Legault           Ottawa      14/17  M25 - 29       54    14   124   42:29  2:08    15   144 1:56:09  29.2     13   129 1:28:00  5:52 
  141     4:06:37 Ellen Maitland          Toronto      9/13  W30 - 34      120    7     97   39:39  1:59    11   157 1:59:06  28.5     8    128 1:27:54  5:52 
  142     4:07:26 Alain Cyr               Brockville  18/21  M40 - 44       13    19   153   46:46  2:21    19   162 2:02:50  27.6     16    85 1:17:50  5:12 
  143     4:07:55 Sonia Boucher           Milton      10/16  W35 - 39      174    15   166   49:13  2:28    10   141 1:55:05  29.5     8    115 1:23:37  5:35 
  144     4:08:03 Jennifer Kelso          Wolfe Isla  11/16  W35 - 39       91    12   140   44:50  2:15    12   150 1:58:10  28.7     9    119 1:25:04  5:41 
  145     4:11:47 Jayson Wilson           Nepean      15/17  M25 - 29      104    8     63   36:52  1:51    14   132 1:53:26  29.9     15   162 1:41:30  6:46 
  146     4:12:23 Trevor Vowles           Kingston     3/4   M55 - 59      141    3    160   47:49  2:24    2    130 1:52:46  30.1     4    145 1:31:49  6:08 
  147     4:12:41 Kim Miroslavich         Brampton    12/16  W35 - 39       72    5     96   39:37  1:59    14   168 2:04:33  27.2     12   131 1:28:32  5:55 
  148     4:12:44 Frank Plummer           Ottawa      17/19  M30 - 34       24    18   177   55:29  2:47    17   137 1:54:21  29.7     12   112 1:22:55  5:32 
  149     4:15:26 Dave Gross              Clifton Pa  15/17  M45 - 49      168    13   147   46:02  2:19    15   143 1:55:56  29.2     16   149 1:33:29  6:14 
  150     4:16:11 Richard Waldolf         Orleans      6/6   M20 - 24       52    3    100   39:47  2:00    5    139 1:54:59  29.5     6    161 1:41:26  6:46 
  151     4:16:28 Kathy Hawthorne         Shelburne    3/3   W20 - 24       42    2     80   38:16  1:55    2    119 1:49:41  30.9     3    171 1:48:32  7:15 
  152     4:17:17 Catharine Clarke        Mountain    13/16  W35 - 39       99    7    129   42:55  2:09    13   152 1:58:24  28.6     14   154 1:35:59  6:24 
  153     4:20:29 David Lyon              Kingston     4/4   M55 - 59      185    4    175   53:46  2:42    4    156 1:58:56  28.5     2    126 1:27:48  5:52 
  154     4:21:59 Dave HAANPAA            Ottawa      18/19  M30 - 34       82         106   40:24  2:02         147 1:57:42  28.8     19   166 1:43:54  6:56 
  155     4:22:18 Kari Osmar              Thornhill   10/13  W30 - 34       43    12   159   47:37  2:23    12   166 2:03:31  27.4     9    143 1:31:10  6:05 
  156     4:23:18 Courtney Warner         Georgetown   1/4   M60 & Over    105    4    161   47:57  2:24    1    158 2:00:08  28.2     1    152 1:35:13  6:21 
  157     4:24:22 Sue McIver              Kingston    14/16  W35 - 39      100    14   152   46:43  2:21    9    138 1:54:36  29.6     15   164 1:43:05  6:53 
  158     4:26:03 Laurent Legault         Kingsport   16/17  M45 - 49       10    16   170   49:30  2:29    17   174 2:09:20  26.2     12   123 1:27:14  5:49 
  159     4:26:29 Ka Sin Tong             Kingston    16/17  M25 - 29      195    12   101   39:47  2:00    16   164 2:03:05  27.5     16   165 1:43:37  6:55 
  160     4:27:02 Clarke LeBlanc          Toronto     19/21  M40 - 44       17    20   179   56:14  2:49    18   140 1:54:59  29.5     18   153 1:35:51  6:24 
  161     4:27:24 Carol Ravnaas           Brockville   7/8   W40 - 44       12    7    143   45:17  2:16    7    163 2:02:53  27.6     7    158 1:39:15  6:37 
  162     4:29:36 Lisa Kunow              Oakville    15/16  W35 - 39       69    16   172   51:43  2:36    15   173 2:09:10  26.2     13   133 1:28:44  5:55 
  163     4:30:20 Robert McCaldon         Hartington   2/4   M60 & Over    136    3    158   47:20  2:22    2    159 2:00:56  28.0     3    163 1:42:05  6:49 
  164     4:31:03 David Harkey            Oakville    19/19  M30 - 34      122    17   174   52:49  2:39    18   146 1:57:14  28.9     18   160 1:41:00  6:44 
  165     4:31:56 Ross Maddams            Kingston     7/10  M50 - 54       31    9    171   50:25  2:32    7    167 2:03:42  27.4     7    155 1:37:50  6:32 
  166     4:32:18 Kerry Moloney           Cobourg      1/1   Junior Women  175    1    119   41:36  2:05    1    160 2:01:21  27.9     1    172 1:49:21  7:18 
  167     4:33:08 samuel Clemence         Syracuse     3/4   M60 & Over     14    1    154   46:52  2:21    3    171 2:08:10  26.5     2    156 1:38:06  6:33 
  168     4:39:56 David Stevens           Rideau fer   8/10  M50 - 54       53    7    149   46:29  2:20    9    177 2:13:31  25.4     9    159 1:39:57  6:40 
  169     4:40:28 John Hall               Kingston     9/10  M50 - 54      171    10   181 1:03:00  3:09    6    153 1:58:25  28.6     8    157 1:39:04  6:37 
  170     4:45:32 Barbara Routliffe       Ottawa      11/13  W30 - 34      184    13   180 1:00:25  3:02    8    149 1:58:04  28.7     11   168 1:47:03  7:09 
  171     4:45:36 Douglas Owen            Westport    17/17  M45 - 49      144    17   173   52:49  2:39    16   155 1:58:45  28.6     17   174 1:54:04  7:37 
  172     4:45:59 Peter Lem               Kingston    17/17  M25 - 29        9    16   167   49:17  2:28    17   165 2:03:13  27.5     17   173 1:53:30  7:34 
  173     4:51:28 Shelley McDonald        Kanata      12/13  W30 - 34       15    11   142   45:15  2:16    13   180 2:17:53  24.6     12   170 1:48:22  7:14 
  174     4:56:46 Susan Radford           Perth        3/3   W45 - 49      148    3    176   55:11  2:46    3    178 2:16:17  24.9     3    167 1:45:19  7:02 
  175     4:59:25 Bob Richards            Kanata      10/10  M50 - 54      152    8    155   46:55  2:21    10   179 2:17:49  24.6     10   175 1:54:42  7:39 
  176     5:00:56 David Maskell           Hartington   4/4   M60 & Over    135    2    156   46:57  2:21    4    175 2:09:30  26.2     4    176 2:04:31  8:19 
  177     5:03:49 Miguel Corpas           Toronto     20/21  M40 - 44      101    21   182 1:07:26  3:23                               20                     
  178             Sarah Fortin            Toronto      9/9   W25 - 29       89    9    178   55:33  2:47    9    170 2:05:22  27.0          177 2:06:25  8:26 
  179             Rebecca ORR             Wolfe Isla  13/13  W30 - 34       90    9    134   43:44  2:12    9    151 1:58:18  28.7                            
  180             Catherine Adams         Toronto     16/16  W35 - 39       50    13   141   45:13  2:16    16   176 2:09:36  26.2                            
  181             Lesley Taylor           Toronto      8/8   W40 - 44      123    8    162   47:59  2:24    8    172 2:08:48  26.3                            
  182             Christopher Mildon      Aurora      21/21  M40 - 44       79    9     53   35:42  1:48    20   181 2:28:52  22.8